createdAt,value
2023-02-01T00:01:08.649Z,6.00
2023-02-01T00:03:14.076Z,5.98
2023-02-01T00:05:17.819Z,5.97
2023-02-01T00:07:21.355Z,5.97
2023-02-01T00:09:26.182Z,5.96
2023-02-01T00:11:29.722Z,5.95
2023-02-01T00:13:34.229Z,5.95
2023-02-01T00:15:37.955Z,5.95
2023-02-01T00:17:41.700Z,5.94
2023-02-01T00:19:46.684Z,5.94
2023-02-01T00:21:50.433Z,5.92
2023-02-01T00:23:54.051Z,5.91
2023-02-01T00:25:57.583Z,5.91
2023-02-01T00:28:01.954Z,5.90
2023-02-01T00:30:06.386Z,5.90
2023-02-01T00:32:10.006Z,5.89
2023-02-01T00:34:16.098Z,5.88
2023-02-01T00:36:21.221Z,5.87
2023-02-01T00:38:24.580Z,5.86
2023-02-01T00:40:28.316Z,5.86
2023-02-01T00:42:32.736Z,5.85
2023-02-01T00:44:37.097Z,5.84
2023-02-01T00:46:40.628Z,5.85
2023-02-01T00:48:44.844Z,5.84
2023-02-01T00:50:48.647Z,5.87
2023-02-01T00:52:53.619Z,5.89
2023-02-01T00:54:57.477Z,5.90
2023-02-01T00:57:01.176Z,5.92
2023-02-01T00:59:04.755Z,5.95
2023-02-01T01:01:11.335Z,5.95
2023-02-01T01:03:19.855Z,5.96
2023-02-01T01:05:23.508Z,5.96
2023-02-01T01:07:27.146Z,5.97
2023-02-01T01:09:31.955Z,5.98
2023-02-01T01:11:37.932Z,6.01
2023-02-01T01:13:44.004Z,6.04
2023-02-01T01:15:47.674Z,6.06
2023-02-01T01:17:51.178Z,6.06
2023-02-01T01:19:57.213Z,6.06
2023-02-01T01:22:02.402Z,6.07
2023-02-01T01:24:06.527Z,6.07
2023-02-01T01:26:14.892Z,6.09
2023-02-01T01:28:18.514Z,6.10
2023-02-01T01:30:22.817Z,6.09
2023-02-01T01:32:26.471Z,6.08
2023-02-01T01:34:30.255Z,6.09
2023-02-01T01:36:33.923Z,6.07
2023-02-01T01:38:37.863Z,6.06
2023-02-01T01:40:41.404Z,6.05
2023-02-01T01:42:46.601Z,6.07
2023-02-01T01:45:04.846Z,6.07
2023-02-01T01:47:11.266Z,6.08
2023-02-01T01:49:17.872Z,6.10
2023-02-01T01:51:24.660Z,6.14
2023-02-01T01:53:34.203Z,6.18
2023-02-01T01:55:41.619Z,6.19
2023-02-01T01:57:52.586Z,6.18
2023-02-01T02:00:02.254Z,6.17
2023-02-01T02:02:17.811Z,6.17
2023-02-01T02:04:22.197Z,6.15
2023-02-01T02:06:37.969Z,6.12
2023-02-01T02:08:41.686Z,6.12
2023-02-01T02:11:01.846Z,6.09
2023-02-01T02:13:06.539Z,6.08
2023-02-01T02:15:11.792Z,6.06
2023-02-01T02:17:28.730Z,6.05
2023-02-01T02:20:00.705Z,6.04
2023-02-01T02:22:42.000Z,6.03
2023-02-01T02:25:33.497Z,6.01
2023-02-01T02:27:48.945Z,6.00
2023-02-01T02:30:35.531Z,5.99
2023-02-01T02:33:12.786Z,5.98
2023-02-01T02:35:27.162Z,5.98
2023-02-01T02:37:39.147Z,5.98
2023-02-01T02:39:51.442Z,5.99
2023-02-01T02:42:23.552Z,5.99
2023-02-01T02:44:52.494Z,5.99
2023-02-01T02:47:23.850Z,6.00
2023-02-01T02:49:36.123Z,5.99
2023-02-01T02:52:03.658Z,6.00
2023-02-01T02:54:30.046Z,6.01
2023-02-01T02:56:50.840Z,6.02
2023-02-01T02:59:12.301Z,6.03
2023-02-01T03:01:33.274Z,6.03
2023-02-01T03:03:57.248Z,6.03
2023-02-01T03:06:01.900Z,6.02
2023-02-01T03:08:13.846Z,6.01
2023-02-01T03:10:26.602Z,6.01
2023-02-01T03:12:48.692Z,6.01
2023-02-01T03:14:57.199Z,6.01
2023-02-01T03:17:04.835Z,6.03
2023-02-01T03:19:11.604Z,6.04
2023-02-01T03:21:20.126Z,6.03
2023-02-01T03:23:30.545Z,6.04
2023-02-01T03:25:35.917Z,6.03
2023-02-01T03:27:46.645Z,6.03
2023-02-01T03:29:55.529Z,6.04
2023-02-01T03:31:59.368Z,6.03
2023-02-01T03:34:03.296Z,6.02
2023-02-01T03:36:17.351Z,6.02
2023-02-01T03:38:25.690Z,6.02
2023-02-01T03:40:31.207Z,6.01
2023-02-01T03:42:42.585Z,6.01
2023-02-01T03:44:52.624Z,6.00
2023-02-01T03:47:00.389Z,5.99
2023-02-01T03:49:07.856Z,5.98
2023-02-01T03:51:14.946Z,5.97
2023-02-01T03:53:22.127Z,5.97
2023-02-01T03:55:29.495Z,5.98
2023-02-01T03:57:37.927Z,5.98
2023-02-01T03:59:42.592Z,5.99
2023-02-01T04:01:45.942Z,5.99
2023-02-01T04:03:49.387Z,5.97
2023-02-01T04:05:52.962Z,5.97
2023-02-01T04:08:00.107Z,5.98
2023-02-01T04:10:04.599Z,5.98
2023-02-01T04:12:09.410Z,6.02
2023-02-01T04:14:12.710Z,6.07
2023-02-01T04:16:16.272Z,6.10
2023-02-01T04:18:19.559Z,6.15
2023-02-01T04:20:23.168Z,6.18
2023-02-01T04:22:26.758Z,6.20
2023-02-01T04:24:30.101Z,6.23
2023-02-01T04:26:33.588Z,6.28
2023-02-01T04:28:38.237Z,6.30
2023-02-01T04:30:41.567Z,6.32
2023-02-01T04:32:44.893Z,6.34
2023-02-01T04:34:48.476Z,6.33
2023-02-01T04:36:51.717Z,6.33
2023-02-01T04:38:54.978Z,6.33
2023-02-01T04:40:58.267Z,6.33
2023-02-01T04:43:04.690Z,6.34
2023-02-01T04:45:10.590Z,6.35
2023-02-01T04:47:13.818Z,6.35
2023-02-01T04:49:17.650Z,6.34
2023-02-01T04:51:20.933Z,6.33
2023-02-01T04:53:24.303Z,6.31
2023-02-01T04:55:27.659Z,6.30
2023-02-01T04:57:31.019Z,6.29
2023-02-01T04:59:34.467Z,6.28
2023-02-01T05:01:39.366Z,6.25
2023-02-01T05:03:42.690Z,6.25
2023-02-01T05:05:46.109Z,6.24
2023-02-01T05:07:49.362Z,6.24
2023-02-01T05:09:52.731Z,6.23
2023-02-01T05:12:13.420Z,6.20
2023-02-01T05:14:16.679Z,6.22
2023-02-01T05:16:20.053Z,6.20
2023-02-01T05:18:24.759Z,6.20
2023-02-01T05:20:28.057Z,6.20
2023-02-01T05:22:31.246Z,6.19
2023-02-01T05:24:34.621Z,6.19
2023-02-01T05:26:38.312Z,6.20
2023-02-01T05:28:41.604Z,6.21
2023-02-01T05:30:45.043Z,6.20
2023-02-01T05:32:52.073Z,6.21
2023-02-01T05:34:56.687Z,6.24
2023-02-01T05:36:59.972Z,6.28
2023-02-01T05:39:03.269Z,6.30
2023-02-01T05:41:06.787Z,6.33
2023-02-01T05:43:10.307Z,6.35
2023-02-01T05:45:13.894Z,6.38
2023-02-01T05:47:17.186Z,6.40
2023-02-01T05:49:20.480Z,6.41
2023-02-01T05:51:25.109Z,6.41
2023-02-01T05:53:28.385Z,6.40
2023-02-01T05:55:31.613Z,6.38
2023-02-01T05:57:34.825Z,6.35
2023-02-01T05:59:42.066Z,6.35
2023-02-01T06:01:45.359Z,6.33
2023-02-01T06:03:48.942Z,6.31
2023-02-01T06:05:52.177Z,6.33
2023-02-01T06:07:56.979Z,6.31
2023-02-01T06:10:00.181Z,6.29
2023-02-01T06:12:03.583Z,6.30
2023-02-01T06:14:09.008Z,6.29
2023-02-01T06:16:12.412Z,6.29
2023-02-01T06:18:16.838Z,6.30
2023-02-01T06:20:20.684Z,6.30
2023-02-01T06:22:24.410Z,6.31
2023-02-01T06:24:29.078Z,6.30
2023-02-01T06:26:32.487Z,6.29
2023-02-01T06:28:36.953Z,6.27
2023-02-01T06:30:42.134Z,6.26
2023-02-01T06:32:45.479Z,6.26
2023-02-01T06:34:48.715Z,6.29
2023-02-01T06:36:52.052Z,6.31
2023-02-01T06:38:57.893Z,6.32
2023-02-01T06:41:03.388Z,6.31
2023-02-01T06:43:06.783Z,6.34
2023-02-01T06:45:10.980Z,6.35
2023-02-01T06:47:14.251Z,6.35
2023-02-01T06:49:17.641Z,6.35
2023-02-01T06:51:23.110Z,6.34
2023-02-01T06:53:26.751Z,6.35
2023-02-01T06:55:30.083Z,6.35
2023-02-01T06:57:35.460Z,6.34
2023-02-01T06:59:38.705Z,6.33
2023-02-01T07:01:42.206Z,6.35
2023-02-01T07:03:48.973Z,6.36
2023-02-01T07:05:52.251Z,6.36
2023-02-01T07:07:55.581Z,6.37
2023-02-01T07:09:58.872Z,6.36
2023-02-01T07:12:02.169Z,6.37
2023-02-01T07:14:06.908Z,6.39
2023-02-01T07:16:13.264Z,6.38
2023-02-01T07:18:16.643Z,6.39
2023-02-01T07:20:20.115Z,6.39
2023-02-01T07:22:23.467Z,6.38
2023-02-01T07:24:26.872Z,6.39
2023-02-01T07:26:30.183Z,6.38
2023-02-01T07:28:35.799Z,6.38
2023-02-01T07:30:40.677Z,6.38
2023-02-01T07:32:44.278Z,6.37
2023-02-01T07:34:47.550Z,6.37
2023-02-01T07:36:50.966Z,6.38
2023-02-01T07:38:56.561Z,6.38
2023-02-01T07:41:00.887Z,6.39
2023-02-01T07:43:04.964Z,6.39
2023-02-01T07:45:20.933Z,6.40
2023-02-01T07:47:26.394Z,6.41
2023-02-01T07:49:29.869Z,6.43
2023-02-01T07:51:33.541Z,6.42
2023-02-01T07:53:37.983Z,6.43
2023-02-01T07:55:41.473Z,6.42
2023-02-01T07:57:44.955Z,6.42
2023-02-01T08:00:02.474Z,6.46
2023-02-01T08:02:15.723Z,6.47
2023-02-01T08:04:21.115Z,6.47
2023-02-01T08:06:25.939Z,6.47
2023-02-01T08:08:29.249Z,6.46
2023-02-01T08:10:32.587Z,6.47
2023-02-01T08:12:35.950Z,6.49
2023-02-01T08:14:39.789Z,6.50
2023-02-01T08:16:43.077Z,6.51
2023-02-01T08:18:47.084Z,6.53
2023-02-01T08:20:52.183Z,6.55
2023-02-01T08:22:55.536Z,6.56
2023-02-01T08:25:02.377Z,6.58
2023-02-01T08:27:05.702Z,6.60
2023-02-01T08:29:12.600Z,6.62
2023-02-01T08:31:18.267Z,6.63
2023-02-01T08:33:21.611Z,6.64
2023-02-01T08:35:37.976Z,6.67
2023-02-01T08:37:47.391Z,6.69
2023-02-01T08:39:51.798Z,6.70
2023-02-01T08:42:08.885Z,6.74
2023-02-01T08:44:12.497Z,6.79
2023-02-01T08:46:18.079Z,6.84
2023-02-01T08:48:21.286Z,6.87
2023-02-01T08:50:26.029Z,6.92
2023-02-01T08:52:29.959Z,6.96
2023-02-01T08:54:34.955Z,7.00
2023-02-01T08:56:38.205Z,7.03
2023-02-01T08:58:41.708Z,7.04
2023-02-01T09:00:46.353Z,7.07
2023-02-01T09:02:49.643Z,7.08
2023-02-01T09:04:53.307Z,7.11
2023-02-01T09:06:56.971Z,7.15
2023-02-01T09:09:00.396Z,7.18
2023-02-01T09:11:06.982Z,7.25
2023-02-01T09:13:10.601Z,7.29
2023-02-01T09:15:13.917Z,7.37
2023-02-01T09:17:17.392Z,7.41
2023-02-01T09:19:26.516Z,7.48
2023-02-01T09:21:30.779Z,7.50
2023-02-01T09:23:34.215Z,7.52
2023-02-01T09:25:39.722Z,7.53
2023-02-01T09:27:44.357Z,7.53
2023-02-01T09:29:50.926Z,7.52
2023-02-01T09:32:03.418Z,7.51
2023-02-01T09:34:08.360Z,7.51
2023-02-01T09:36:11.768Z,7.51
2023-02-01T09:38:15.039Z,7.52
2023-02-01T09:40:19.318Z,7.55
2023-02-01T09:42:42.826Z,7.60
2023-02-01T09:45:12.673Z,7.62
2023-02-01T09:47:16.938Z,7.63
2023-02-01T09:49:26.274Z,7.66
2023-02-01T09:51:34.946Z,7.66
2023-02-01T09:53:43.363Z,7.65
2023-02-01T09:55:49.361Z,7.65
2023-02-01T09:57:58.498Z,7.63
2023-02-01T10:00:10.013Z,7.65
2023-02-01T10:02:19.678Z,7.67
2023-02-01T10:04:23.493Z,7.70
2023-02-01T10:06:50.025Z,7.72
2023-02-01T10:09:16.778Z,7.75
2023-02-01T10:11:31.695Z,7.79
2023-02-01T10:13:47.394Z,7.86
2023-02-01T10:16:10.781Z,7.94
2023-02-01T10:18:33.452Z,8.04
2023-02-01T10:20:52.155Z,8.10
2023-02-01T10:23:27.295Z,8.19
2023-02-01T10:25:32.828Z,8.24
2023-02-01T10:27:38.172Z,8.27
2023-02-01T10:29:43.361Z,8.31
2023-02-01T10:31:48.784Z,8.33
2023-02-01T10:33:57.700Z,8.33
2023-02-01T10:36:06.146Z,8.37
2023-02-01T10:38:23.329Z,8.36
2023-02-01T10:40:28.016Z,8.39
2023-02-01T10:42:33.359Z,8.37
2023-02-01T10:44:40.131Z,8.35
2023-02-01T10:46:43.836Z,8.34
2023-02-01T10:48:49.502Z,8.41
2023-02-01T10:50:59.344Z,8.44
2023-02-01T10:53:07.737Z,8.52
2023-02-01T10:55:41.329Z,8.58
2023-02-01T10:57:56.480Z,8.62
2023-02-01T10:59:59.722Z,8.69
2023-02-01T11:02:21.705Z,8.71
2023-02-01T11:04:28.448Z,8.73
2023-02-01T11:06:34.761Z,8.74
2023-02-01T11:08:45.260Z,8.69
2023-02-01T11:10:48.514Z,8.64
2023-02-01T11:12:56.388Z,8.64
2023-02-01T11:15:14.602Z,8.67
2023-02-01T11:17:29.437Z,8.73
2023-02-01T11:19:34.449Z,8.83
2023-02-01T11:21:38.973Z,8.92
2023-02-01T11:23:46.931Z,8.97
2023-02-01T11:25:53.378Z,8.99
2023-02-01T11:27:58.098Z,8.94
2023-02-01T11:30:05.185Z,8.89
2023-02-01T11:32:10.888Z,8.83
2023-02-01T11:34:18.317Z,8.78
2023-02-01T11:36:27.710Z,8.75
2023-02-01T11:38:33.785Z,8.70
2023-02-01T11:40:38.761Z,8.72
2023-02-01T11:42:55.423Z,8.69
2023-02-01T11:45:21.751Z,8.72
2023-02-01T11:47:28.601Z,8.75
2023-02-01T11:49:32.434Z,8.77
2023-02-01T11:51:53.627Z,8.81
2023-02-01T11:54:12.932Z,8.86
2023-02-01T11:56:26.535Z,8.90
2023-02-01T11:58:48.969Z,8.95
2023-02-01T12:01:16.032Z,9.01
2023-02-01T12:04:01.580Z,9.07
2023-02-01T12:06:11.434Z,9.12
2023-02-01T12:08:42.090Z,9.17
2023-02-01T12:10:57.820Z,9.20
2023-02-01T12:13:16.005Z,9.22
2023-02-01T12:15:37.307Z,9.22
2023-02-01T12:17:55.847Z,9.23
2023-02-01T12:20:21.943Z,9.24
2023-02-01T12:22:40.044Z,9.27
2023-02-01T12:25:15.271Z,9.31
2023-02-01T12:27:56.124Z,9.31
2023-02-01T12:30:12.959Z,9.28
2023-02-01T12:32:36.484Z,9.26
2023-02-01T12:34:50.739Z,9.23
2023-02-01T12:37:02.355Z,9.27
2023-02-01T12:39:24.967Z,9.29
2023-02-01T12:41:54.246Z,9.29
2023-02-01T12:44:02.380Z,9.28
2023-02-01T12:46:09.798Z,9.32
2023-02-01T12:48:28.412Z,9.35
2023-02-01T14:30:49.760Z,9.27
2023-02-01T14:32:53.660Z,9.26
2023-02-01T14:35:00.509Z,9.27
2023-02-01T14:37:06.754Z,9.28
2023-02-01T14:39:22.375Z,9.29
2023-02-01T14:41:34.022Z,9.30
2023-02-01T14:43:53.837Z,9.31
2023-02-01T14:45:58.677Z,9.36
2023-02-01T14:48:16.630Z,9.37
2023-02-01T14:50:42.590Z,9.35
2023-02-01T14:52:48.935Z,9.35
2023-02-01T14:54:57.392Z,9.36
2023-02-01T14:57:02.201Z,9.38
2023-02-01T14:59:11.476Z,9.37
2023-02-01T15:01:25.647Z,9.37
2023-02-01T15:03:42.129Z,9.35
2023-02-01T15:05:45.418Z,9.36
2023-02-01T15:07:49.900Z,9.32
2023-02-01T15:09:55.285Z,9.32
2023-02-01T15:12:02.466Z,9.30
2023-02-01T15:14:16.405Z,9.28
2023-02-01T15:16:20.132Z,9.28
2023-02-01T15:18:26.035Z,9.25
2023-02-01T15:20:31.272Z,9.24
2023-02-01T15:22:34.787Z,9.23
2023-02-01T15:24:38.787Z,9.19
2023-02-01T15:26:42.330Z,9.20
2023-02-01T15:28:45.864Z,9.19
2023-02-01T15:31:00.649Z,9.18
2023-02-01T15:33:09.311Z,9.19
2023-02-01T15:35:37.370Z,9.19
2023-02-01T15:37:40.722Z,9.17
2023-02-01T15:40:16.269Z,9.15
2023-02-01T15:42:21.067Z,9.12
2023-02-01T15:44:36.945Z,9.10
2023-02-01T15:46:43.615Z,9.07
2023-02-01T15:48:50.814Z,9.07
2023-02-01T15:50:57.619Z,9.06
2023-02-01T15:53:01.517Z,9.02
2023-02-01T15:55:10.246Z,9.01
2023-02-01T15:57:14.105Z,8.99
2023-02-01T15:59:20.071Z,8.97
2023-02-01T16:01:24.349Z,8.93
2023-02-01T16:03:36.243Z,8.92
2023-02-01T16:05:42.084Z,8.91
2023-02-01T16:08:05.040Z,8.90
2023-02-01T16:10:27.538Z,8.88
2023-02-01T16:12:36.169Z,8.86
2023-02-01T16:14:41.914Z,8.85
2023-02-01T16:16:46.284Z,8.83
2023-02-01T16:18:50.028Z,8.83
2023-02-01T16:20:54.304Z,8.81
2023-02-01T16:22:59.908Z,8.80
2023-02-01T16:25:03.922Z,8.79
2023-02-01T16:27:08.425Z,8.78
2023-02-01T16:29:12.193Z,8.77
2023-02-01T16:31:20.640Z,8.77
2023-02-01T16:33:25.495Z,8.75
2023-02-01T16:35:37.435Z,8.74
2023-02-01T16:37:41.614Z,8.72
2023-02-01T16:39:46.625Z,8.71
2023-02-01T16:41:50.717Z,8.70
2023-02-01T16:43:56.483Z,8.68
2023-02-01T16:46:06.299Z,8.68
2023-02-01T16:48:11.164Z,8.67
2023-02-01T16:50:23.377Z,8.64
2023-02-01T16:52:29.155Z,8.63
2023-02-01T16:54:33.285Z,8.64
2023-02-01T16:56:45.196Z,8.64
2023-02-01T16:58:49.979Z,8.68
2023-02-01T17:00:54.625Z,8.68
2023-02-01T17:02:58.520Z,8.68
2023-02-01T17:05:02.502Z,8.67
2023-02-01T17:07:10.712Z,8.64
2023-02-01T17:09:14.543Z,8.62
2023-02-01T17:11:18.944Z,8.61
2023-02-01T17:13:24.218Z,8.59
2023-02-01T17:15:30.868Z,8.58
2023-02-01T17:17:39.564Z,8.56
2023-02-01T17:19:44.490Z,8.56
2023-02-01T17:21:53.525Z,8.54
2023-02-01T17:23:59.090Z,8.54
2023-02-01T17:26:03.639Z,8.54
2023-02-01T17:28:07.657Z,8.55
2023-02-01T17:30:14.693Z,8.53
2023-02-01T17:32:22.187Z,8.52
2023-02-01T17:34:25.856Z,8.53
2023-02-01T17:36:30.319Z,8.50
2023-02-01T17:38:34.904Z,8.49
2023-02-01T17:40:39.021Z,8.51
2023-02-01T17:42:42.959Z,8.50
2023-02-01T17:44:46.713Z,8.49
2023-02-01T17:46:52.093Z,8.49
2023-02-01T17:48:56.304Z,8.49
2023-02-01T17:51:00.432Z,8.49
2023-02-01T17:53:06.241Z,8.49
2023-02-01T17:55:20.549Z,8.49
2023-02-01T17:57:24.927Z,8.49
2023-02-01T17:59:29.008Z,8.49
2023-02-01T18:01:35.630Z,8.50
2023-02-01T18:03:42.250Z,8.49
2023-02-01T18:05:51.175Z,8.49
2023-02-01T18:07:55.058Z,8.49
2023-02-01T18:09:58.709Z,8.49
2023-02-01T18:12:03.499Z,8.47
2023-02-01T18:14:07.353Z,8.45
2023-02-01T18:16:20.629Z,8.42
2023-02-01T18:18:25.379Z,8.38
2023-02-01T18:20:31.026Z,8.33
2023-02-01T18:22:35.132Z,8.29
2023-02-01T18:24:39.730Z,8.25
2023-02-01T18:26:44.030Z,8.22
2023-02-01T18:28:48.277Z,8.18
2023-02-01T18:30:53.171Z,8.16
2023-02-01T18:32:57.437Z,8.12
2023-02-01T18:35:01.682Z,8.08
2023-02-01T18:37:07.093Z,8.08
2023-02-01T18:39:12.325Z,8.08
2023-02-01T18:41:18.099Z,8.09
2023-02-01T18:43:22.677Z,8.10
2023-02-01T18:45:32.025Z,8.11
2023-02-01T18:47:35.841Z,8.11
2023-02-01T18:49:39.632Z,8.13
2023-02-01T18:51:44.475Z,8.14
2023-02-01T18:53:50.308Z,8.14
2023-02-01T18:55:54.888Z,8.14
2023-02-01T18:57:59.471Z,8.17
2023-02-01T19:00:04.265Z,8.17
2023-02-01T19:02:10.790Z,8.17
2023-02-01T19:04:19.278Z,8.16
2023-02-01T19:06:28.358Z,8.17
2023-02-01T19:08:32.286Z,8.17
2023-02-01T19:10:38.971Z,8.17
2023-02-01T19:12:43.153Z,8.17
2023-02-01T19:14:47.067Z,8.17
2023-02-01T19:16:51.909Z,8.18
2023-02-01T19:18:55.490Z,8.18
2023-02-01T19:21:04.770Z,8.17
2023-02-01T19:23:11.499Z,8.16
2023-02-01T19:25:17.782Z,8.14
2023-02-01T19:27:23.507Z,8.13
2023-02-01T19:29:27.408Z,8.13
2023-02-01T19:31:31.646Z,8.13
2023-02-01T19:33:36.193Z,8.12
2023-02-01T19:35:41.083Z,8.12
2023-02-01T19:37:45.901Z,8.12
2023-02-01T19:39:49.659Z,8.12
2023-02-01T19:41:53.832Z,8.10
2023-02-01T19:43:59.529Z,8.08
2023-02-01T19:46:05.042Z,8.07
2023-02-01T19:48:09.735Z,8.06
2023-02-01T19:50:18.589Z,8.03
2023-02-01T19:52:22.979Z,8.02
2023-02-01T19:54:26.869Z,7.99
2023-02-01T19:56:30.866Z,7.97
2023-02-01T19:58:35.331Z,7.92
2023-02-01T20:00:40.089Z,7.87
2023-02-01T20:02:44.038Z,7.83
2023-02-01T20:04:48.458Z,7.79
2023-02-01T20:06:55.170Z,7.75
2023-02-01T20:09:00.620Z,7.72
2023-02-01T20:11:08.634Z,7.68
2023-02-01T20:13:16.181Z,7.65
2023-02-01T20:15:22.555Z,7.61
2023-02-01T20:17:28.520Z,7.59
2023-02-01T20:19:32.330Z,7.56
2023-02-01T20:21:38.900Z,7.55
2023-02-01T20:23:48.567Z,7.52
2023-02-01T20:25:53.775Z,7.51
2023-02-01T20:28:01.243Z,7.51
2023-02-01T20:30:06.148Z,7.49
2023-02-01T20:32:10.962Z,7.50
2023-02-01T20:34:16.395Z,7.48
2023-02-01T20:36:20.675Z,7.49
2023-02-01T20:38:24.636Z,7.49
2023-02-01T20:40:29.241Z,7.50
2023-02-01T20:42:33.158Z,7.50
2023-02-01T20:44:37.145Z,7.49
2023-02-01T20:46:41.170Z,7.49
2023-02-01T20:48:46.764Z,7.48
2023-02-01T20:50:55.961Z,7.48
2023-02-01T20:53:00.428Z,7.48
2023-02-01T20:55:04.606Z,7.47
2023-02-01T20:57:08.718Z,7.48
2023-02-01T20:59:15.752Z,7.48
2023-02-01T21:01:20.049Z,7.47
2023-02-01T21:03:24.274Z,7.48
2023-02-01T21:05:40.175Z,7.47
2023-02-01T21:07:46.171Z,7.47
2023-02-01T21:09:50.777Z,7.49
2023-02-01T21:11:55.762Z,7.50
2023-02-01T21:13:59.698Z,7.52
2023-02-01T21:16:05.673Z,7.53
2023-02-01T21:18:11.967Z,7.57
2023-02-01T21:20:17.982Z,7.58
2023-02-01T21:22:22.673Z,7.59
2023-02-01T21:24:28.057Z,7.58
2023-02-01T21:26:41.332Z,7.60
2023-02-01T21:28:45.861Z,7.61
2023-02-01T21:30:49.817Z,7.62
2023-02-01T21:32:53.655Z,7.63
2023-02-01T21:34:58.921Z,7.65
2023-02-01T21:37:04.159Z,7.67
2023-02-01T21:39:12.032Z,7.67
2023-02-01T21:41:34.734Z,7.68
2023-02-01T21:43:39.360Z,7.70
2023-02-01T21:45:50.936Z,7.72
2023-02-01T21:47:55.867Z,7.73
2023-02-01T21:49:59.849Z,7.72
2023-02-01T21:52:04.283Z,7.75
2023-02-01T21:54:09.751Z,7.78
2023-02-01T21:56:13.908Z,7.80
2023-02-01T21:58:19.006Z,7.83
2023-02-01T22:00:24.156Z,7.84
2023-02-01T22:02:29.195Z,7.85
2023-02-01T22:04:32.845Z,7.88
2023-02-01T22:06:39.672Z,7.89
2023-02-01T22:08:43.411Z,7.89
2023-02-01T22:10:47.377Z,7.91
2023-02-01T22:12:51.579Z,7.92
2023-02-01T22:14:56.903Z,7.93
2023-02-01T22:17:00.897Z,7.92
2023-02-01T22:19:04.725Z,7.91
2023-02-01T22:21:08.526Z,7.90
2023-02-01T22:23:12.458Z,7.89
2023-02-01T22:25:16.607Z,7.90
2023-02-01T22:27:20.511Z,7.91
2023-02-01T22:29:27.155Z,7.90
2023-02-01T22:31:32.054Z,7.90
2023-02-01T22:33:36.632Z,7.90
2023-02-01T22:35:41.069Z,7.90
2023-02-01T22:37:45.541Z,7.90
2023-02-01T22:39:49.579Z,7.88
2023-02-01T22:41:53.679Z,7.88
2023-02-01T22:43:57.932Z,7.87
2023-02-01T22:46:03.089Z,7.85
2023-02-01T22:48:08.954Z,7.83
2023-02-01T22:50:13.372Z,7.84
2023-02-01T22:52:17.511Z,7.84
2023-02-01T22:54:22.661Z,7.83
2023-02-01T22:56:27.755Z,7.84
2023-02-01T22:58:31.817Z,7.84
2023-02-01T23:00:35.952Z,7.85
2023-02-01T23:02:39.782Z,7.85
2023-02-01T23:04:45.446Z,7.85
2023-02-01T23:06:50.659Z,7.85
2023-02-01T23:08:57.421Z,7.86
2023-02-01T23:11:01.503Z,7.89
2023-02-01T23:13:05.626Z,7.93
2023-02-01T23:15:10.401Z,7.95
2023-02-01T23:17:14.086Z,7.96
2023-02-01T23:19:18.612Z,7.98
2023-02-01T23:21:25.000Z,7.99
2023-02-01T23:23:28.741Z,8.01
2023-02-01T23:25:32.581Z,8.03
2023-02-01T23:27:36.265Z,8.03
2023-02-01T23:29:39.982Z,8.03
2023-02-01T23:31:43.684Z,8.04
2023-02-01T23:33:49.358Z,8.05
2023-02-01T23:35:57.722Z,8.05
2023-02-01T23:38:02.974Z,8.07
2023-02-01T23:40:08.182Z,8.08
2023-02-01T23:42:11.982Z,8.08
2023-02-01T23:44:14.773Z,8.10
2023-02-01T23:46:19.883Z,8.11
2023-02-01T23:48:23.476Z,8.10
2023-02-01T23:50:27.143Z,8.09
2023-02-01T23:52:31.475Z,8.08
2023-02-01T23:54:37.528Z,8.07
2023-02-01T23:56:43.735Z,8.03
2023-02-01T23:58:48.245Z,8.00
